Time;durP1;ratioP1;P1;durP2;ratioP2;P2;SDS_P1;SDS_P2;PMS_P1;PMS_P2;Temp;Humidity;BMP_temperature;BMP_pressure;BME280_temperature;BME280_humidity;BME280_pressure;Samples;Min_cycle;Max_cycle;Signal;HPM_P1;HPM_P2
2021/12/09 00:01:01;;;;;;;10.61;3.01;;;;;;;0.41;96.46;98108.69;2304709;66;24112;-77
2021/12/09 00:04:07;;;;;;;5.80;2.26;;;;;;;0.43;96.38;98112.13;2306837;69;20331;-77
2021/12/09 00:07:10;;;;;;;6.19;2.65;;;;;;;0.46;96.39;98104.50;2306392;69;20149;-77
2021/12/09 00:10:13;;;;;;;5.84;2.94;;;;;;;0.47;96.31;98106.22;2306614;69;20306;-77
2021/12/09 00:13:16;;;;;;;5.51;2.93;;;;;;;0.49;96.33;98094.34;2307671;69;20416;-77
2021/12/09 00:16:19;;;;;;;5.88;2.53;;;;;;;0.54;96.44;98093.59;2306268;66;23352;-77
2021/12/09 00:19:21;;;;;;;6.14;2.97;;;;;;;0.56;96.36;98097.00;2308516;69;20295;-77
2021/12/09 00:22:25;;;;;;;5.69;2.58;;;;;;;0.61;96.43;98107.28;2308463;69;20880;-77
2021/12/09 00:25:28;;;;;;;4.93;2.45;;;;;;;0.61;96.27;98102.19;2307024;69;20858;-77
2021/12/09 00:28:30;;;;;;;4.29;2.22;;;;;;;0.62;96.20;98101.34;2306952;69;20314;-77
2021/12/09 00:31:34;;;;;;;5.15;2.74;;;;;;;0.64;96.28;98101.34;2305753;66;22029;-77
2021/12/09 00:34:40;;;;;;;8.10;2.94;;;;;;;0.63;96.08;98100.50;2304567;69;20397;-77
2021/12/09 00:38:00;;;;;;;5.36;2.60;;;;;;;0.54;95.60;98108.03;2309935;69;20294;-77
2021/12/09 00:41:06;;;;;;;6.27;2.79;;;;;;;0.48;95.74;98105.38;2306508;69;20302;-77
2021/12/09 00:44:09;;;;;;;6.25;2.61;;;;;;;0.41;95.58;98111.25;2306483;69;20253;-77
2021/12/09 00:47:12;;;;;;;5.28;2.53;;;;;;;0.32;95.45;98106.00;2306802;66;21213;-77
2021/12/09 00:50:15;;;;;;;5.95;2.41;;;;;;;0.26;95.40;98112.72;2307564;69;20378;-77
2021/12/09 00:53:18;;;;;;;7.15;2.65;;;;;;;0.22;95.33;98118.63;2306642;69;20497;-77
2021/12/09 00:56:20;;;;;;;5.50;2.33;;;;;;;0.14;94.97;98117.63;2306924;69;20598;-77
2021/12/09 00:59:23;;;;;;;6.46;2.96;;;;;;;0.04;94.54;98117.47;2305320;69;20859;-76
2021/12/09 01:02:26;;;;;;;6.95;2.84;;;;;;;-0.04;94.57;98115.63;2304818;67;26305;-77
2021/12/09 01:05:29;;;;;;;3.89;2.45;;;;;;;-0.08;94.59;98118.97;2309088;69;20361;-76
2021/12/09 01:08:32;;;;;;;5.75;2.33;;;;;;;-0.11;94.73;98115.50;2307223;69;20846;-76
2021/12/09 01:11:35;;;;;;;3.40;1.95;;;;;;;-0.13;94.85;98120.59;2307342;69;20306;-77
2021/12/09 01:14:38;;;;;;;3.51;2.08;;;;;;;-0.15;95.01;98126.50;2306166;69;20318;-76
2021/12/09 01:17:41;;;;;;;4.92;2.22;;;;;;;-0.19;94.92;98124.72;2305530;67;22338;-76
2021/12/09 01:20:44;;;;;;;5.95;1.89;;;;;;;-0.23;95.05;98128.91;2306198;69;20171;-76
2021/12/09 01:23:47;;;;;;;6.06;1.81;;;;;;;-0.26;95.04;98128.00;2307049;69;20294;-76
2021/12/09 01:26:50;;;;;;;5.14;1.98;;;;;;;-0.29;95.13;98126.25;2306142;69;20282;-77
2021/12/09 01:29:55;;;;;;;4.61;2.11;;;;;;;-0.34;95.09;98138.94;2306012;69;20234;-76
2021/12/09 01:32:58;;;;;;;3.72;2.11;;;;;;;-0.35;95.27;98134.66;2304698;66;24657;-77
2021/12/09 01:36:02;;;;;;;3.21;2.11;;;;;;;-0.38;95.08;98146.47;2306377;69;20699;-77
2021/12/09 01:39:06;;;;;;;5.67;2.22;;;;;;;-0.40;95.24;98146.44;2306346;69;20145;-77
2021/12/09 01:42:09;;;;;;;3.90;2.40;;;;;;;-0.43;95.10;98145.53;2307196;69;20217;-77
2021/12/09 01:45:12;;;;;;;5.66;1.96;;;;;;;-0.46;95.02;98158.22;2309550;69;20683;-76
2021/12/09 01:48:16;;;;;;;3.72;2.17;;;;;;;-0.48;95.13;98154.81;2307475;67;28172;-77
2021/12/09 01:51:19;;;;;;;4.29;1.87;;;;;;;-0.53;95.01;98156.41;2308442;69;20320;-77
2021/12/09 01:54:25;;;;;;;4.11;2.17;;;;;;;-0.57;95.06;98158.00;2306165;69;20179;-76
2021/12/09 01:57:28;;;;;;;4.83;2.17;;;;;;;-0.62;94.88;98164.72;2305945;69;20634;-76
2021/12/09 02:00:32;;;;;;;5.36;1.96;;;;;;;-0.59;95.15;98171.56;2305231;66;22217;-77
2021/12/09 02:03:37;;;;;;;3.34;1.44;;;;;;;-0.63;94.97;98168.09;2306772;69;20323;-76
2021/12/09 02:06:41;;;;;;;4.33;2.12;;;;;;;-0.64;94.96;98164.69;2306511;69;20954;-76
2021/12/09 02:09:44;;;;;;;5.19;2.12;;;;;;;-0.70;94.62;98171.38;2308531;69;20638;-76
2021/12/09 02:12:49;;;;;;;3.24;2.27;;;;;;;-0.73;95.01;98177.25;2306840;69;20161;-76
2021/12/09 02:15:54;;;;;;;4.52;2.03;;;;;;;-0.72;95.21;98171.34;2307733;69;20152;-76
2021/12/09 02:18:57;;;;;;;4.78;1.73;;;;;;;-0.74;95.34;98170.41;2302526;66;27165;-76
2021/12/09 02:22:00;;;;;;;3.42;1.58;;;;;;;-0.74;95.38;98172.97;2305013;69;20277;-76
2021/12/09 02:25:04;;;;;;;4.80;1.50;;;;;;;-0.77;95.32;98178.00;2308505;69;20214;-76
2021/12/09 02:28:06;;;;;;;5.72;1.53;;;;;;;-0.76;95.48;98173.78;2308263;69;20211;-76
2021/12/09 02:31:10;;;;;;;2.49;1.80;;;;;;;-0.79;95.29;98168.63;2307479;66;23557;-76
2021/12/09 02:34:13;;;;;;;3.78;1.81;;;;;;;-0.84;95.08;98176.19;2308174;69;20189;-76
2021/12/09 02:37:15;;;;;;;3.70;1.70;;;;;;;-0.85;95.15;98158.31;2309054;69;20164;-76
2021/12/09 02:40:18;;;;;;;6.16;2.09;;;;;;;-0.88;95.07;98160.81;2309384;69;20606;-76
2021/12/09 02:43:29;;;;;;;7.86;2.68;;;;;;;-0.89;95.23;98167.59;2307922;69;20245;-76
2021/12/09 02:46:36;;;;;;;5.43;2.78;;;;;;;-0.90;95.28;98168.38;2306251;66;23104;-76
2021/12/09 02:49:39;;;;;;;5.36;2.84;;;;;;;-0.92;95.17;98164.94;2305531;69;20161;-76
2021/12/09 02:52:42;;;;;;;7.70;2.89;;;;;;;-0.94;95.22;98167.47;2307624;69;21208;-76
2021/12/09 02:55:45;;;;;;;7.27;2.91;;;;;;;-0.97;95.21;98167.41;2307352;69;20177;-76
2021/12/09 02:58:47;;;;;;;6.27;3.01;;;;;;;-0.96;95.22;98175.91;2306676;69;20242;-76
2021/12/09 03:01:59;;;;;;;5.83;2.72;;;;;;;-1.01;94.93;98173.28;2306333;66;24660;-76
2021/12/09 03:05:06;;;;;;;4.79;2.72;;;;;;;-1.05;94.86;98178.28;2309239;69;20153;-76
2021/12/09 03:08:09;;;;;;;4.44;2.48;;;;;;;-1.06;94.77;98184.19;2308243;69;20238;-76
2021/12/09 03:11:19;;;;;;;6.26;2.43;;;;;;;-1.11;94.65;98183.22;2309279;69;20185;-76
2021/12/09 03:14:23;;;;;;;3.69;2.39;;;;;;;-1.11;94.55;98191.72;2308306;69;20184;-75
2021/12/09 03:17:27;;;;;;;4.57;2.40;;;;;;;-1.15;94.42;98189.94;2307141;66;21527;-76
2021/12/09 03:20:30;;;;;;;3.44;2.47;;;;;;;-1.16;94.43;98195.84;2309365;69;20191;-75
2021/12/09 03:23:37;;;;;;;8.44;3.37;;;;;;;-1.17;94.40;98203.47;2308211;69;20249;-76
2021/12/09 03:27:01;;;;;;;6.44;3.02;;;;;;;-1.19;94.39;98197.47;2296170;69;20164;-75
2021/12/09 03:30:16;;;;;;;6.72;3.08;;;;;;;-1.19;94.53;98205.97;2304174;69;20161;-75
2021/12/09 03:40:51;;;;;;;;;;;;;;;-1.17;95.12;98201.78;2298236;69;20277;-75
2021/12/09 03:44:37;;;;;;;4.37;2.28;;;;;;;-1.17;95.15;98219.59;2302954;69;20152;-75
2021/12/09 03:47:43;;;;;;;5.93;2.20;;;;;;;-1.21;94.95;98215.28;2287375;69;609744;-75
2021/12/09 03:50:48;;;;;;;4.14;2.17;;;;;;;-1.23;94.90;98222.03;2296416;69;20172;-75
2021/12/09 03:53:53;;;;;;;6.06;2.28;;;;;;;-1.22;94.90;98221.19;2306619;69;20169;-74
2021/12/09 03:57:00;;;;;;;3.86;2.06;;;;;;;-1.22;94.94;98232.22;2306804;69;20165;-75
2021/12/09 04:00:08;;;;;;;6.01;3.19;;;;;;;-1.20;94.79;98231.41;2305269;69;20167;-75
2021/12/09 04:03:16;;;;;;;7.04;2.41;;;;;;;-1.16;94.91;98233.19;2302843;66;177034;-75
2021/12/09 04:06:22;;;;;;;4.16;2.14;;;;;;;-1.10;95.14;98229.09;2304812;69;20210;-75
2021/12/09 04:09:26;;;;;;;7.51;2.47;;;;;;;-1.03;95.28;98230.09;2303570;69;21207;-75
2021/12/09 04:12:29;;;;;;;4.90;2.38;;;;;;;-0.99;95.31;98236.97;2303753;69;20160;-75
2021/12/09 04:15:34;;;;;;;5.38;2.48;;;;;;;-0.96;95.38;98235.34;2300272;69;20199;-74
2021/12/09 04:18:40;;;;;;;7.33;2.82;;;;;;;-0.89;95.46;98227.88;2299175;69;20142;-75
2021/12/09 04:21:45;;;;;;;5.81;2.54;;;;;;;-0.88;95.40;98230.44;2296624;69;20161;-75
2021/12/09 06:30:38;;;;;;;5.38;3.57;;;;;;;0.55;97.02;98349.81;2296414;66;233901;-75
2021/12/09 06:33:41;;;;;;;7.70;4.38;;;;;;;0.66;97.46;98357.66;2299606;69;20546;-75
2021/12/09 06:40:51;;;;;;;7.69;4.56;;;;;;;0.76;97.46;98354.44;2303311;69;20382;-75
2021/12/09 06:43:54;;;;;;;6.74;4.22;;;;;;;0.82;97.62;98364.75;2303388;69;20165;-75
2021/12/09 06:46:58;;;;;;;10.90;4.70;;;;;;;0.84;97.51;98363.94;2288860;69;953691;-75
2021/12/09 06:50:01;;;;;;;9.32;5.49;;;;;;;0.90;97.74;98366.63;2304295;69;20210;-75
2021/12/09 06:59:35;;;;;;;4.97;4.46;;;;;;;1.06;97.91;98380.50;2291928;69;20310;-74
2021/12/09 07:02:38;;;;;;;10.90;4.93;;;;;;;1.10;97.83;98379.75;2283209;67;128448;-74
2021/12/09 07:05:45;;;;;;;7.69;4.71;;;;;;;1.16;97.97;98384.94;2290461;69;21181;-75
2021/12/09 07:08:52;;;;;;;8.21;5.06;;;;;;;1.21;98.01;98382.44;2290373;69;20308;-74
2021/12/09 07:11:57;;;;;;;7.88;5.11;;;;;;;1.25;97.92;98394.44;2270425;69;20314;-74
2021/12/09 07:18:23;;;;;;;5.97;4.81;;;;;;;1.34;97.69;98409.09;2288784;69;20410;-74
2021/12/09 07:21:26;;;;;;;9.71;5.45;;;;;;;1.36;97.60;98410.84;2290692;69;20240;-77
2021/12/09 07:24:28;;;;;;;11.06;5.39;;;;;;;1.40;97.58;98404.91;2293005;69;20309;-76
2021/12/09 07:27:31;;;;;;;8.63;5.16;;;;;;;1.44;97.51;98403.31;2291496;69;20309;-75
2021/12/09 07:30:34;;;;;;;8.76;5.72;;;;;;;1.46;97.46;98410.16;2290026;67;22135;-75
2021/12/09 07:33:36;;;;;;;8.66;5.35;;;;;;;1.45;97.23;98399.91;2291415;69;20305;-75
2021/12/09 07:36:39;;;;;;;7.81;4.93;;;;;;;1.46;97.19;98399.06;2292400;69;20354;-76
2021/12/09 07:39:42;;;;;;;10.55;5.49;;;;;;;1.46;97.36;98392.25;2293045;69;20370;-76
2021/12/09 07:42:45;;;;;;;9.07;5.57;;;;;;;1.49;97.44;98404.22;2292558;69;20352;-76
2021/12/09 07:45:48;;;;;;;11.71;5.93;;;;;;;1.47;97.26;98408.47;2289955;66;21559;-75
2021/12/09 07:48:51;;;;;;;9.54;6.09;;;;;;;1.52;97.43;98409.38;2291288;69;20318;-76
2021/12/09 07:51:55;;;;;;;9.34;5.66;;;;;;;1.55;97.39;98406.00;2291104;69;20314;-75
2021/12/09 07:54:58;;;;;;;9.54;6.34;;;;;;;1.58;97.29;98423.94;2291584;69;20317;-76
2021/12/09 07:58:00;;;;;;;11.31;5.88;;;;;;;1.60;97.30;98419.72;2291142;69;21082;-76
2021/12/09 08:01:05;;;;;;;8.95;6.04;;;;;;;1.63;97.25;98427.47;2287968;67;23802;-75
2021/12/09 08:04:10;;;;;;;10.20;6.04;;;;;;;1.65;97.24;98436.88;2290187;69;20348;-76
2021/12/09 08:18:56;;;;;;;9.63;6.13;;;;;;;1.78;97.07;98433.66;2294592;69;20313;-75
2021/12/09 08:21:59;;;;;;;7.56;5.71;;;;;;;1.80;97.01;98426.03;2280943;69;20440;-75
2021/12/09 08:25:07;;;;;;;10.34;5.99;;;;;;;1.79;96.88;98431.94;2294638;69;20364;-75
2021/12/09 08:28:14;;;;;;;11.06;6.60;;;;;;;1.79;96.96;98431.94;2294832;69;20329;-75
2021/12/09 08:31:20;;;;;;;9.98;5.54;;;;;;;1.82;96.92;98444.81;2293794;69;20288;-75
2021/12/09 08:34:42;;;;;;;10.00;5.93;;;;;;;1.85;97.04;98444.00;2290486;69;20328;-75
2021/12/09 08:45:22;;;;;;;10.84;4.26;;;;;;;1.98;96.83;98444.19;2286758;69;983858;-74
2021/12/09 08:57:22;;;;;;;8.45;5.18;;;;;;;2.08;96.58;98445.16;2297199;69;20295;-75
2021/12/09 09:09:26;;;;;;;12.90;4.85;;;;;;;2.19;96.56;98453.00;2289011;69;20351;-77
2021/12/09 09:12:30;;;;;;;12.79;4.91;;;;;;;2.20;96.42;98455.59;2287724;69;20346;-76
2021/12/09 09:15:35;;;;;;;11.51;4.56;;;;;;;2.22;96.22;98451.34;2286893;67;20378;-77
2021/12/09 09:18:37;;;;;;;7.16;4.13;;;;;;;2.24;96.20;98453.94;2288503;69;20420;-77
2021/12/09 09:22:13;;;;;;;9.11;3.69;;;;;;;2.24;96.07;98439.41;2288398;69;20327;-77
2021/12/09 09:29:43;;;;;;;6.70;3.66;;;;;;;2.36;96.04;98431.03;2301380;69;20220;-77
2021/12/09 09:32:49;;;;;;;7.18;3.69;;;;;;;2.40;95.64;98432.81;2286824;69;988241;-77
2021/12/09 09:35:54;;;;;;;8.64;4.07;;;;;;;2.42;95.48;98442.22;2302451;69;20340;-77
2021/12/09 09:39:16;;;;;;;9.18;4.16;;;;;;;2.43;95.36;98448.19;2297089;69;20313;-77
2021/12/09 09:43:25;;;;;;;;;;;;;;;;;;;;;
2021/12/09 09:45:43;;;;;;;11.73;5.04;;;;;;;2.51;95.20;98446.59;2278187;67;181818;-77
2021/12/09 09:48:51;;;;;;;10.55;5.25;;;;;;;2.55;95.14;98452.63;2300502;69;20324;-77
2021/12/09 10:37:23;;;;;;;6.79;2.65;;;;;;;2.98;92.50;98456.53;2295925;69;20371;-76
2021/12/09 10:40:39;;;;;;;5.44;2.67;;;;;;;3.03;92.50;98445.47;2289040;69;20312;-77
2021/12/09 10:43:53;;;;;;;7.07;2.66;;;;;;;3.05;91.94;98445.47;2287152;69;20313;-76
2021/12/09 10:47:09;;;;;;;10.93;3.99;;;;;;;3.10;91.84;98437.84;2270165;69;989883;-76
2021/12/09 10:54:38;;;;;;;8.86;2.26;;;;;;;3.20;90.70;98437.06;2287710;69;20489;-76
2021/12/09 10:57:42;;;;;;;6.88;2.00;;;;;;;3.19;90.20;98430.22;2288161;69;20322;-76
2021/12/09 11:00:55;;;;;;;7.09;2.08;;;;;;;3.20;90.21;98432.81;2283290;67;187174;-76
2021/12/09 11:08:28;;;;;;;6.85;2.63;;;;;;;3.24;89.47;98421.75;2299778;69;20930;-76
2021/12/09 11:16:31;;;;;;;7.74;2.83;;;;;;;3.27;89.53;98437.16;2212553;69;30599325;-76
2021/12/09 11:20:07;;;;;;;6.93;2.88;;;;;;;3.27;89.48;98432.03;2301084;69;20338;-76
2021/12/09 11:24:09;;;;;;;6.25;2.95;;;;;;;3.31;89.29;98428.66;2303330;69;20333;-76
2021/12/09 11:35:26;;;;;;;6.86;1.84;;;;;;;3.39;89.05;98428.69;2302055;69;20963;-76
2021/12/09 11:39:08;;;;;;;7.80;2.74;;;;;;;3.43;88.69;98421.91;2291925;69;20412;-76
2021/12/09 11:46:41;;;;;;;6.57;1.81;;;;;;;3.40;88.25;98416.72;2300659;69;20350;-76
2021/12/09 11:55:08;;;;;;;7.39;3.24;;;;;;;3.43;87.68;98411.66;2301400;69;20418;-76
2021/12/09 11:58:29;;;;;;;8.49;2.75;;;;;;;3.42;87.31;98417.63;2298213;69;20443;-76
2021/12/09 12:15:51;;;;;;;9.14;2.85;;;;;;;3.59;87.58;98388.69;2301238;67;20739;-76
2021/12/09 12:19:09;;;;;;;4.81;2.24;;;;;;;3.60;87.89;98382.69;2301185;69;20319;-76
2021/12/09 12:36:28;;;;;;;6.14;2.00;;;;;;;3.66;88.24;98373.31;2304904;69;20287;-78
2021/12/09 12:43:08;;;;;;;5.95;2.30;;;;;;;3.70;88.94;98367.34;2303452;69;20298;-76
2021/12/09 12:46:44;;;;;;;7.22;1.90;;;;;;;3.74;89.16;98361.38;2301722;66;21790;-76
2021/12/09 12:50:07;;;;;;;6.68;2.28;;;;;;;3.77;89.41;98358.81;2303544;69;20324;-76
2021/12/09 12:53:38;;;;;;;8.85;4.36;;;;;;;3.81;89.68;98356.28;2302396;69;20321;-76
2021/12/09 12:56:45;;;;;;;8.05;3.78;;;;;;;3.81;89.92;98355.44;2302221;69;20867;-76
2021/12/09 13:00:06;;;;;;;6.72;1.92;;;;;;;3.83;90.06;98349.47;2297790;69;20302;-76
2021/12/09 13:03:29;;;;;;;4.88;1.63;;;;;;;3.86;90.03;98340.91;2302337;66;25102;-76
2021/12/09 13:06:53;;;;;;;3.29;1.98;;;;;;;3.78;89.72;98345.16;2304046;69;20310;-76
2021/12/09 13:17:09;;;;;;;6.21;1.90;;;;;;;3.69;90.31;98342.53;2300871;67;20695;-75
2021/12/09 13:20:27;;;;;;;2.60;1.60;;;;;;;3.70;90.83;98336.53;2302556;69;20275;-75
2021/12/09 13:23:29;;;;;;;5.20;1.79;;;;;;;3.70;90.93;98331.41;2301766;69;20322;-75
2021/12/09 13:26:36;;;;;;;6.25;1.75;;;;;;;3.72;90.99;98327.13;2301684;69;20270;-75
2021/12/09 13:46:27;;;;;;;5.60;2.51;;;;;;;3.53;91.59;98321.88;2298143;67;21566;-74
2021/12/09 13:49:56;;;;;;;2.83;1.31;;;;;;;3.54;91.70;98321.03;2300851;69;20806;-73
2021/12/09 13:56:06;;;;;;;3.90;1.38;;;;;;;3.41;91.55;98332.09;2302140;69;20199;-74
2021/12/09 13:59:19;;;;;;;2.99;1.45;;;;;;;3.39;91.53;98332.91;2302251;69;20920;-75
2021/12/09 14:02:23;;;;;;;3.91;1.42;;;;;;;3.37;91.72;98330.34;2299130;67;22111;-75
2021/12/09 14:05:44;;;;;;;1.71;1.10;;;;;;;3.33;91.81;98331.16;2302568;69;20342;-75
2021/12/09 14:08:53;;;;;;;5.30;1.27;;;;;;;3.29;91.80;98334.56;2302152;69;20283;-75
2021/12/09 14:11:57;;;;;;;4.69;1.80;;;;;;;3.25;92.01;98341.38;2302031;69;20302;-75
2021/12/09 14:15:07;;;;;;;5.20;1.70;;;;;;;3.23;92.35;98339.63;2303238;69;20983;-75
2021/12/09 14:18:22;;;;;;;3.28;1.40;;;;;;;3.22;92.41;98335.34;2302214;66;20399;-75
2021/12/09 14:21:26;;;;;;;4.04;1.42;;;;;;;3.21;92.61;98334.50;2302458;69;20383;-75
2021/12/09 14:24:35;;;;;;;4.05;1.60;;;;;;;3.19;92.69;98341.31;2303238;69;21151;-75
2021/12/09 14:27:38;;;;;;;;;;;;;;;3.21;92.94;98343.88;2302296;69;20997;-74
2021/12/09 14:30:45;;;;;;;3.05;1.40;;;;;;;3.25;93.08;98351.66;2294085;67;22172;-74
2021/12/09 14:33:48;;;;;;;6.97;1.74;;;;;;;3.26;93.23;98350.78;2301579;69;20379;-75
2021/12/09 14:36:52;;;;;;;4.75;1.20;;;;;;;3.23;93.19;98350.78;2302309;69;20452;-75
2021/12/09 14:40:28;;;;;;;5.43;1.51;;;;;;;3.21;93.31;98365.25;2307337;69;20343;-74
2021/12/09 14:43:31;;;;;;;4.88;1.45;;;;;;;3.21;93.41;98349.03;2298968;69;20294;-73
2021/12/09 14:46:37;;;;;;;4.59;1.52;;;;;;;3.21;93.42;98356.72;2299112;67;35203;-74
2021/12/09 14:50:02;;;;;;;3.56;1.51;;;;;;;3.11;92.93;98360.94;2301111;69;20315;-73
2021/12/09 14:53:05;;;;;;;3.64;2.00;;;;;;;3.05;92.97;98353.16;2301881;69;20314;-74
2021/12/09 14:56:32;;;;;;;3.39;2.04;;;;;;;3.02;93.03;98355.69;2301591;69;20314;-74
2021/12/09 14:59:37;;;;;;;2.94;2.08;;;;;;;2.99;93.03;98356.53;2302919;69;20896;-74
2021/12/09 15:02:49;;;;;;;4.00;2.09;;;;;;;2.96;93.18;98353.94;2294619;67;21928;-74
2021/12/09 15:05:58;;;;;;;3.14;2.09;;;;;;;2.95;93.26;98352.25;2302546;69;20399;-74
2021/12/09 15:09:23;;;;;;;9.41;2.40;;;;;;;2.94;93.22;98352.22;2301859;69;20433;-74
2021/12/09 15:12:34;;;;;;;4.85;2.40;;;;;;;2.92;93.22;98351.34;2301191;69;20264;-74
2021/12/09 15:15:37;;;;;;;3.71;2.21;;;;;;;2.95;93.57;98347.09;2300020;67;21863;-74
2021/12/09 15:18:40;;;;;;;3.16;1.77;;;;;;;2.97;93.60;98347.97;2301941;69;20286;-74
2021/12/09 15:21:43;;;;;;;7.13;2.38;;;;;;;2.98;93.70;98348.84;2302531;69;20391;-74
2021/12/09 15:25:04;;;;;;;6.32;2.00;;;;;;;3.00;93.79;98354.84;2300262;69;20318;-74
2021/12/09 15:28:13;;;;;;;5.19;1.86;;;;;;;3.01;93.95;98359.13;2301267;69;20372;-74
2021/12/09 15:31:21;;;;;;;3.80;2.09;;;;;;;2.97;93.84;98365.94;2299923;67;24851;-73
2021/12/09 15:34:27;;;;;;;7.14;2.05;;;;;;;2.98;94.15;98362.50;2301476;69;20299;-73
2021/12/09 15:37:33;;;;;;;3.10;1.73;;;;;;;3.01;94.27;98364.25;2301211;69;20387;-73
2021/12/09 15:40:43;;;;;;;5.26;1.66;;;;;;;3.04;94.37;98360.00;2301117;69;20299;-73
2021/12/09 15:43:51;;;;;;;7.15;1.89;;;;;;;3.06;94.48;98362.59;2300152;69;20372;-73
2021/12/09 15:46:54;;;;;;;7.79;1.89;;;;;;;3.08;94.68;98360.06;2299893;66;20764;-73
2021/12/09 15:50:00;;;;;;;7.93;3.51;;;;;;;3.09;94.72;98359.19;2301654;69;20825;-72
2021/12/09 15:53:03;;;;;;;9.56;2.22;;;;;;;3.13;94.89;98355.81;2300788;69;20328;-72
2021/12/09 15:56:14;;;;;;;6.00;1.55;;;;;;;3.14;94.95;98358.38;2301061;69;20306;-72
2021/12/09 15:59:19;;;;;;;6.79;1.61;;;;;;;3.16;94.89;98366.94;2300597;69;20310;-71
2021/12/09 16:02:31;;;;;;;4.86;1.30;;;;;;;3.15;95.06;98365.22;2299868;66;20858;-72
2021/12/09 16:05:35;;;;;;;3.96;1.31;;;;;;;3.17;95.16;98365.25;2302052;69;20347;-73
2021/12/09 16:08:37;;;;;;;3.92;1.31;;;;;;;3.19;95.20;98361.84;2300826;69;20298;-74
2021/12/09 16:11:42;;;;;;;8.84;1.33;;;;;;;3.19;95.17;98371.25;2301951;69;20318;-73
2021/12/09 16:14:51;;;;;;;3.84;1.35;;;;;;;3.21;95.17;98364.41;2301620;69;20342;-73
2021/12/09 16:17:55;;;;;;;4.45;1.33;;;;;;;3.20;95.13;98367.81;2299542;67;21914;-73
2021/12/09 16:21:17;;;;;;;5.07;1.20;;;;;;;3.22;95.25;98373.81;2301491;69;20675;-73
2021/12/09 16:24:20;;;;;;;5.44;1.44;;;;;;;3.23;95.29;98367.84;2302022;69;20335;-72
2021/12/09 16:27:26;;;;;;;4.89;1.26;;;;;;;3.24;95.35;98365.31;2301711;69;20334;-72
2021/12/09 16:30:30;;;;;;;4.65;1.38;;;;;;;3.27;95.44;98365.34;2299457;68;21313;-72
2021/12/09 16:33:34;;;;;;;4.20;1.30;;;;;;;3.28;95.29;98361.06;2300785;69;20294;-72
2021/12/09 16:36:38;;;;;;;5.65;1.31;;;;;;;3.29;95.29;98363.63;2301127;69;20328;-71
2021/12/09 16:39:42;;;;;;;4.36;1.20;;;;;;;3.29;95.20;98360.22;2301263;69;20298;-72
2021/12/09 16:42:45;;;;;;;4.01;1.04;;;;;;;3.30;95.31;98365.34;2301362;69;20314;-72
2021/12/09 16:45:50;;;;;;;8.91;1.26;;;;;;;3.32;95.31;98360.22;2300349;67;24889;-71
2021/12/09 16:48:53;;;;;;;10.25;1.11;;;;;;;3.33;95.25;98359.38;2301985;69;20324;-71
2021/12/09 16:51:57;;;;;;;16.98;6.28;;;;;;;3.33;95.25;98367.94;2301752;69;20363;-72
2021/12/09 16:55:06;;;;;;;7.05;2.75;;;;;;;3.36;95.25;98364.53;2301861;69;20335;-72
2021/12/09 16:58:09;;;;;;;8.96;1.77;;;;;;;3.35;95.15;98367.94;2302836;69;20470;-72
2021/12/09 17:01:14;;;;;;;6.20;1.63;;;;;;;3.37;95.17;98368.81;2303789;67;23923;-73
2021/12/09 17:04:18;;;;;;;7.36;1.65;;;;;;;3.39;95.15;98368.81;2303656;69;20458;-72
2021/12/09 17:07:22;;;;;;;6.70;1.89;;;;;;;3.39;95.23;98363.69;2302383;69;20302;-73
2021/12/09 17:10:28;;;;;;;3.16;1.64;;;;;;;3.39;95.26;98366.25;2302025;69;20364;-73
2021/12/09 17:13:30;;;;;;;5.63;3.33;;;;;;;3.40;95.29;98363.69;2301389;69;20314;-73
2021/12/09 17:16:33;;;;;;;7.31;1.50;;;;;;;3.41;95.30;98367.13;2300075;67;21420;-73
2021/12/09 17:19:37;;;;;;;4.95;1.39;;;;;;;3.40;95.37;98361.13;2302633;69;21298;-73
2021/12/09 17:22:45;;;;;;;5.56;1.10;;;;;;;3.40;95.42;98356.00;2301997;69;20307;-72
2021/12/09 17:25:48;;;;;;;3.28;1.10;;;;;;;3.40;95.55;98358.56;2301560;69;20322;-71
2021/12/09 17:28:52;;;;;;;6.76;1.48;;;;;;;3.41;95.46;98356.88;2301764;69;20291;-71
2021/12/09 17:31:55;;;;;;;7.11;1.10;;;;;;;3.40;95.60;98350.00;2299730;66;20819;-71
2021/12/09 17:34:58;;;;;;;6.10;1.30;;;;;;;3.36;95.33;98353.41;2301977;69;20316;-72
2021/12/09 17:38:02;;;;;;;8.77;1.76;;;;;;;3.36;95.43;98344.00;2301941;69;20318;-72
2021/12/09 17:41:04;;;;;;;7.75;1.24;;;;;;;3.36;95.31;98346.56;2302313;69;20340;-73
2021/12/09 17:44:08;;;;;;;10.50;1.63;;;;;;;3.36;95.32;98335.47;2302735;69;20316;-73
2021/12/09 17:47:11;;;;;;;9.09;1.31;;;;;;;3.36;95.37;98336.31;2301574;66;24013;-73
2021/12/09 17:50:17;;;;;;;4.85;1.65;;;;;;;3.34;95.32;98336.31;2301443;69;20760;-73
2021/12/09 17:57:46;;;;;;;4.84;1.60;;;;;;;3.36;95.53;98333.75;2300323;69;20346;-73
2021/12/09 18:00:51;;;;;;;9.50;1.74;;;;;;;3.39;95.67;98341.47;2299018;67;20418;-72
2021/12/09 18:03:54;;;;;;;9.93;1.70;;;;;;;3.40;95.64;98335.47;2300842;69;20649;-72
2021/12/09 18:06:57;;;;;;;7.69;1.40;;;;;;;3.42;95.66;98333.81;2301367;69;20376;-73
2021/12/09 18:10:00;;;;;;;7.03;1.60;;;;;;;3.43;95.68;98335.53;2300693;69;20298;-72
2021/12/09 18:13:04;;;;;;;5.79;1.52;;;;;;;3.44;95.69;98331.25;2300830;69;20707;-73
2021/12/09 18:16:11;;;;;;;7.39;1.85;;;;;;;3.46;95.71;98332.13;2298079;67;32548;-73
2021/12/09 18:19:38;;;;;;;6.09;1.83;;;;;;;3.46;95.70;98343.25;2299366;69;20355;-74
2021/12/09 18:23:15;;;;;;;7.63;2.24;;;;;;;3.46;95.66;98332.97;2299368;69;20387;-74
2021/12/09 18:26:49;;;;;;;6.01;1.74;;;;;;;3.48;95.78;98330.41;2299999;69;20306;-74
2021/12/09 18:30:11;;;;;;;8.41;2.19;;;;;;;3.50;95.80;98328.72;2298915;69;20363;-74
2021/12/09 18:33:20;;;;;;;9.30;1.75;;;;;;;3.51;95.61;98339.00;2301093;69;20437;-73
2021/12/09 18:36:26;;;;;;;8.59;1.87;;;;;;;3.49;95.57;98333.00;2301459;69;20780;-74
2021/12/09 18:39:36;;;;;;;8.05;1.80;;;;;;;3.50;95.62;98337.28;2302592;69;20348;-74
2021/12/09 18:42:53;;;;;;;9.07;1.99;;;;;;;3.51;95.57;98333.84;2303074;69;20316;-74
2021/12/09 18:46:03;;;;;;;6.86;1.63;;;;;;;3.52;95.45;98335.56;2287683;67;128622;-74
2021/12/09 18:49:07;;;;;;;10.71;1.98;;;;;;;3.51;95.36;98335.56;2289339;69;21273;-74
2021/12/09 18:52:14;;;;;;;5.94;1.60;;;;;;;3.53;95.34;98334.72;2288491;69;20345;-74
2021/12/09 18:55:18;;;;;;;6.88;1.60;;;;;;;3.53;95.25;98333.88;2288520;69;20330;-74
2021/12/09 18:58:23;;;;;;;10.24;2.53;;;;;;;3.51;95.16;98330.44;2281821;69;20793;-74
2021/12/09 19:01:45;;;;;;;10.29;1.85;;;;;;;3.52;95.11;98335.56;2284892;67;125502;-76
2021/12/09 19:04:49;;;;;;;7.64;1.88;;;;;;;3.53;95.13;98339.00;2287983;69;20349;-74
2021/12/09 19:20:38;;;;;;;10.98;2.20;;;;;;;3.44;94.22;98326.97;2300745;69;20302;-75
2021/12/09 19:23:43;;;;;;;8.56;1.73;;;;;;;3.49;94.27;98335.56;2301415;69;20334;-75
2021/12/09 19:27:25;;;;;;;5.99;1.40;;;;;;;3.46;94.03;98332.97;2301826;69;20338;-75
2021/12/09 19:35:24;;;;;;;8.81;2.04;;;;;;;3.44;94.17;98337.25;2301918;69;20383;-75
2021/12/09 19:51:47;;;;;;;7.36;1.83;;;;;;;3.48;94.00;98343.25;2303336;69;20990;-75
2021/12/09 19:55:07;;;;;;;8.94;3.29;;;;;;;3.46;93.86;98329.56;2300283;69;20489;-75
2021/12/09 19:58:13;;;;;;;5.69;1.73;;;;;;;3.46;93.84;98332.97;2287699;69;20322;-75
2021/12/09 20:01:18;;;;;;;5.82;1.85;;;;;;;3.47;93.79;98332.13;2290685;67;20294;-75
2021/12/09 20:04:22;;;;;;;6.90;1.69;;;;;;;3.45;93.73;98331.25;2302588;69;20318;-75
2021/12/09 20:07:29;;;;;;;6.31;1.31;;;;;;;3.46;93.59;98327.84;2301369;69;20335;-75
2021/12/09 20:10:35;;;;;;;5.22;1.51;;;;;;;3.46;93.42;98317.59;2302326;69;20322;-75
2021/12/09 20:13:49;;;;;;;5.80;1.40;;;;;;;3.49;93.16;98324.44;2301386;69;20305;-75
2021/12/09 20:16:56;;;;;;;8.21;1.29;;;;;;;3.48;93.04;98315.88;2301402;67;21149;-75
2021/12/09 20:20:04;;;;;;;10.14;1.73;;;;;;;3.47;93.00;98316.72;2300768;69;20336;-75
2021/12/09 20:27:18;;;;;;;7.79;1.70;;;;;;;3.48;92.73;98312.47;2302580;69;20962;-75
2021/12/09 20:30:26;;;;;;;7.54;1.45;;;;;;;3.45;92.69;98310.72;2298415;66;142197;-76
2021/12/09 20:37:46;;;;;;;6.18;1.31;;;;;;;3.41;92.34;98318.38;2296221;69;21267;-75
2021/12/09 20:40:52;;;;;;;10.18;1.54;;;;;;;3.38;92.11;98308.09;2295191;69;21121;-75
2021/12/09 20:48:06;;;;;;;4.29;1.29;;;;;;;3.37;92.35;98302.13;2294224;69;20979;-79
2021/12/09 20:55:28;;;;;;;6.80;1.66;;;;;;;3.34;91.38;98302.94;2290336;69;20489;-74
2021/12/09 21:02:31;;;;;;;6.79;1.14;;;;;;;3.34;91.25;98299.53;2293019;67;209216;-75
2021/12/09 21:05:37;;;;;;;5.46;1.29;;;;;;;3.33;91.49;98292.69;2295796;69;20177;-76
2021/12/09 21:08:45;;;;;;;6.63;1.56;;;;;;;3.33;91.42;98283.28;2294986;69;20361;-75
2021/12/09 21:12:12;;;;;;;10.16;1.26;;;;;;;3.33;91.64;98273.03;2280554;69;20333;-75
2021/12/09 21:19:16;;;;;;;8.51;1.14;;;;;;;3.34;91.70;98268.75;2289632;69;20396;-76